sensor_id;sensor_type;location;lat;lon;timestamp;P1;durP1;ratioP1;P2;durP2;ratioP2
71902;SDS011;59778;50.310;18.780;2023-07-20T00:05:49;8.83;;;4.30;;
71902;SDS011;59778;50.310;18.780;2023-07-20T00:21:11;6.47;;;2.60;;
71902;SDS011;59778;50.310;18.780;2023-07-20T00:36:32;5.27;;;2.40;;
71902;SDS011;59778;50.310;18.780;2023-07-20T00:51:53;7.57;;;3.20;;
71902;SDS011;59778;50.310;18.780;2023-07-20T01:38:18;8.20;;;3.10;;
71902;SDS011;59778;50.310;18.780;2023-07-20T01:53:41;8.37;;;3.07;;
71902;SDS011;59778;50.310;18.780;2023-07-20T02:09:02;8.10;;;2.67;;
71902;SDS011;59778;50.310;18.780;2023-07-20T02:24:23;7.73;;;3.00;;
71902;SDS011;59778;50.310;18.780;2023-07-20T02:39:46;6.53;;;2.10;;
71902;SDS011;59778;50.310;18.780;2023-07-20T02:55:08;9.13;;;2.50;;
71902;SDS011;59778;50.310;18.780;2023-07-20T03:10:31;5.37;;;2.30;;
71902;SDS011;59778;50.310;18.780;2023-07-20T03:25:53;7.83;;;2.30;;
71902;SDS011;59778;50.310;18.780;2023-07-20T03:41:16;4.40;;;1.90;;
71902;SDS011;59778;50.310;18.780;2023-07-20T03:56:37;6.10;;;2.03;;
71902;SDS011;59778;50.310;18.780;2023-07-20T04:11:58;5.53;;;2.13;;
71902;SDS011;59778;50.310;18.780;2023-07-20T04:27:20;5.23;;;2.30;;
71902;SDS011;59778;50.310;18.780;2023-07-20T04:42:41;6.43;;;2.40;;
71902;SDS011;59778;50.310;18.780;2023-07-20T04:58:03;5.27;;;2.57;;
71902;SDS011;59778;50.310;18.780;2023-07-20T05:13:24;5.90;;;2.20;;
71902;SDS011;59778;50.310;18.780;2023-07-20T05:28:46;4.33;;;1.80;;
71902;SDS011;59778;50.310;18.780;2023-07-20T05:44:07;4.83;;;2.03;;
71902;SDS011;59778;50.310;18.780;2023-07-20T05:59:28;6.60;;;2.63;;
71902;SDS011;59778;50.310;18.780;2023-07-20T06:14:52;7.67;;;2.40;;
71902;SDS011;59778;50.310;18.780;2023-07-20T06:30:14;12.90;;;2.60;;
71902;SDS011;59778;50.310;18.780;2023-07-20T06:45:35;4.60;;;1.50;;
71902;SDS011;59778;50.310;18.780;2023-07-20T07:00:57;2.43;;;1.00;;
71902;SDS011;59778;50.310;18.780;2023-07-20T07:16:18;18.40;;;1.97;;
71902;SDS011;59778;50.310;18.780;2023-07-20T07:31:40;4.47;;;1.20;;
71902;SDS011;59778;50.310;18.780;2023-07-20T07:47:01;4.67;;;1.47;;
71902;SDS011;59778;50.310;18.780;2023-07-20T08:02:22;5.47;;;2.07;;
71902;SDS011;59778;50.310;18.780;2023-07-20T08:17:44;8.43;;;3.03;;
71902;SDS011;59778;50.310;18.780;2023-07-20T08:33:05;12.67;;;4.90;;
71902;SDS011;59778;50.310;18.780;2023-07-20T08:48:26;9.30;;;4.60;;
71902;SDS011;59778;50.310;18.780;2023-07-20T09:03:49;11.83;;;6.33;;
71902;SDS011;59778;50.310;18.780;2023-07-20T09:19:11;9.00;;;4.40;;
71902;SDS011;59778;50.310;18.780;2023-07-20T09:34:32;9.67;;;6.13;;
71902;SDS011;59778;50.310;18.780;2023-07-20T09:50:00;34.63;;;8.53;;
71902;SDS011;59778;50.310;18.780;2023-07-20T10:05:22;10.63;;;5.40;;
71902;SDS011;59778;50.310;18.780;2023-07-20T10:20:45;9.03;;;4.70;;
71902;SDS011;59778;50.310;18.780;2023-07-20T10:36:07;22.37;;;4.60;;
71902;SDS011;59778;50.310;18.780;2023-07-20T10:51:28;8.90;;;3.63;;
71902;SDS011;59778;50.310;18.780;2023-07-20T11:06:56;3.97;;;2.17;;
71902;SDS011;59778;50.310;18.780;2023-07-20T11:22:17;3.53;;;1.90;;
71902;SDS011;59778;50.310;18.780;2023-07-20T11:37:40;6.57;;;2.27;;
71902;SDS011;59778;50.310;18.780;2023-07-20T11:53:01;6.37;;;2.80;;
71902;SDS011;59778;50.310;18.780;2023-07-20T12:08:23;3.93;;;2.20;;
71902;SDS011;59778;50.310;18.780;2023-07-20T12:23:45;7.00;;;2.37;;
71902;SDS011;59778;50.310;18.780;2023-07-20T12:39:06;6.00;;;2.30;;
71902;SDS011;59778;50.310;18.780;2023-07-20T12:54:27;4.40;;;1.80;;
71902;SDS011;59778;50.310;18.780;2023-07-20T13:09:48;3.83;;;1.90;;
71902;SDS011;59778;50.310;18.780;2023-07-20T13:25:09;5.37;;;1.90;;
71902;SDS011;59778;50.310;18.780;2023-07-20T13:40:31;4.10;;;1.80;;
71902;SDS011;59778;50.310;18.780;2023-07-20T13:55:57;5.07;;;1.60;;
71902;SDS011;59778;50.310;18.780;2023-07-20T14:11:19;5.20;;;1.60;;
71902;SDS011;59778;50.310;18.780;2023-07-20T14:26:40;5.37;;;1.70;;
71902;SDS011;59778;50.310;18.780;2023-07-20T14:42:01;4.70;;;1.63;;
71902;SDS011;59778;50.310;18.780;2023-07-20T14:57:24;7.57;;;1.30;;
71902;SDS011;59778;50.310;18.780;2023-07-20T15:12:45;3.37;;;1.03;;
71902;SDS011;59778;50.310;18.780;2023-07-20T15:28:07;4.33;;;1.40;;
71902;SDS011;59778;50.310;18.780;2023-07-20T15:43:28;4.27;;;1.83;;
71902;SDS011;59778;50.310;18.780;2023-07-20T15:58:50;2.80;;;1.43;;
71902;SDS011;59778;50.310;18.780;2023-07-20T16:14:12;3.67;;;1.70;;
71902;SDS011;59778;50.310;18.780;2023-07-20T16:29:33;6.03;;;1.93;;
71902;SDS011;59778;50.310;18.780;2023-07-20T16:44:55;5.87;;;1.70;;
71902;SDS011;59778;50.310;18.780;2023-07-20T17:00:16;4.27;;;1.50;;
71902;SDS011;59778;50.310;18.780;2023-07-20T17:15:38;5.87;;;2.50;;
71902;SDS011;59778;50.310;18.780;2023-07-20T17:30:59;2.57;;;1.30;;
71902;SDS011;59778;50.310;18.780;2023-07-20T17:46:21;4.43;;;1.50;;
71902;SDS011;59778;50.310;18.780;2023-07-20T18:01:42;4.27;;;1.40;;
71902;SDS011;59778;50.310;18.780;2023-07-20T18:17:03;2.23;;;1.33;;
71902;SDS011;59778;50.310;18.780;2023-07-20T18:32:25;3.27;;;1.57;;
71902;SDS011;59778;50.310;18.780;2023-07-20T18:47:46;4.73;;;1.70;;
71902;SDS011;59778;50.310;18.780;2023-07-20T19:03:10;7.73;;;1.93;;
71902;SDS011;59778;50.310;18.780;2023-07-20T19:18:32;7.67;;;3.67;;
71902;SDS011;59778;50.310;18.780;2023-07-20T19:33:53;6.23;;;2.90;;
71902;SDS011;59778;50.310;18.780;2023-07-20T19:49:14;14.03;;;6.10;;
71902;SDS011;59778;50.310;18.780;2023-07-20T20:04:36;15.50;;;5.63;;
71902;SDS011;59778;50.310;18.780;2023-07-20T20:19:59;10.17;;;6.27;;
71902;SDS011;59778;50.310;18.780;2023-07-20T20:35:20;10.90;;;4.70;;
71902;SDS011;59778;50.310;18.780;2023-07-20T20:50:41;10.50;;;4.17;;
71902;SDS011;59778;50.310;18.780;2023-07-20T21:06:05;9.20;;;4.60;;
71902;SDS011;59778;50.310;18.780;2023-07-20T21:21:26;7.70;;;4.20;;
71902;SDS011;59778;50.310;18.780;2023-07-20T21:36:48;9.20;;;4.03;;
71902;SDS011;59778;50.310;18.780;2023-07-20T21:52:09;9.47;;;4.57;;
71902;SDS011;59778;50.310;18.780;2023-07-20T22:07:30;9.90;;;4.33;;
71902;SDS011;59778;50.310;18.780;2023-07-20T22:22:51;11.07;;;4.80;;
71902;SDS011;59778;50.310;18.780;2023-07-20T22:38:12;8.47;;;3.90;;
71902;SDS011;59778;50.310;18.780;2023-07-20T22:53:34;9.10;;;4.10;;
71902;SDS011;59778;50.310;18.780;2023-07-20T23:08:55;8.87;;;4.10;;
71902;SDS011;59778;50.310;18.780;2023-07-20T23:24:16;7.40;;;3.80;;
71902;SDS011;59778;50.310;18.780;2023-07-20T23:39:37;6.80;;;3.70;;
71902;SDS011;59778;50.310;18.780;2023-07-20T23:54:58;9.63;;;4.60;;
